createdAt,value
2023-05-05T00:03:42.817Z,2.70
2023-05-05T00:08:46.535Z,2.80
2023-05-05T00:13:49.828Z,2.40
2023-05-05T00:18:52.937Z,2.40
2023-05-05T00:23:56.157Z,2.20
2023-05-05T00:28:59.259Z,2.80
2023-05-05T00:34:02.279Z,2.70
2023-05-05T00:39:05.281Z,3.50
2023-05-05T00:44:08.895Z,3.10
2023-05-05T00:49:12.563Z,3.60
2023-05-05T00:54:15.832Z,3.10
2023-05-05T00:59:19.042Z,3.10
2023-05-05T01:04:22.358Z,3.10
2023-05-05T01:09:32.400Z,3.50
2023-05-05T01:14:39.836Z,2.80
2023-05-05T01:19:58.098Z,2.60
2023-05-05T01:25:48.322Z,5.00
2023-05-05T01:31:03.414Z,3.40
2023-05-05T01:36:16.316Z,3.70
2023-05-05T01:41:34.708Z,3.30
2023-05-05T01:46:38.230Z,3.00
2023-05-05T01:51:42.416Z,2.90
2023-05-05T01:56:46.483Z,2.60
2023-05-05T02:01:50.722Z,3.40
2023-05-05T02:06:56.574Z,3.00
2023-05-05T02:12:02.454Z,3.20
2023-05-05T02:17:05.590Z,2.30
2023-05-05T02:22:08.907Z,3.00
2023-05-05T02:27:12.500Z,3.20
2023-05-05T02:32:20.843Z,2.70
2023-05-05T02:37:27.776Z,2.10
2023-05-05T02:42:41.856Z,2.80
2023-05-05T02:47:45.091Z,3.40
2023-05-05T02:52:48.438Z,2.70
2023-05-05T02:58:14.178Z,2.10
2023-05-05T03:03:44.934Z,2.00
2023-05-05T03:09:02.996Z,2.60
2023-05-05T03:14:10.807Z,2.90
2023-05-05T03:19:18.192Z,3.10
2023-05-05T03:24:21.663Z,2.70
2023-05-05T03:29:25.561Z,2.50
2023-05-05T03:34:28.674Z,1.80
2023-05-05T03:39:31.861Z,3.00
2023-05-05T03:44:36.848Z,2.00
2023-05-05T03:49:39.864Z,2.40
2023-05-05T03:54:43.259Z,2.10
2023-05-05T03:59:46.786Z,1.80
2023-05-05T04:04:49.786Z,2.90
2023-05-05T04:09:53.005Z,2.60
2023-05-05T04:14:56.108Z,2.70
2023-05-05T04:19:59.318Z,2.30
2023-05-05T04:25:02.679Z,1.80
2023-05-05T04:30:07.069Z,2.00
2023-05-05T04:35:10.296Z,2.10
2023-05-05T04:40:13.708Z,2.40
2023-05-05T04:45:16.807Z,3.10
2023-05-05T04:50:19.946Z,3.10
2023-05-05T04:55:23.061Z,2.60
2023-05-05T05:00:26.136Z,2.80
2023-05-05T05:05:29.252Z,2.30
2023-05-05T05:10:32.348Z,2.40
2023-05-05T05:15:38.430Z,2.60
2023-05-05T05:20:41.644Z,2.90
2023-05-05T05:25:44.756Z,2.50
2023-05-05T05:30:48.046Z,2.70
2023-05-05T05:35:51.072Z,2.90
2023-05-05T05:40:54.688Z,3.00
2023-05-05T05:45:57.678Z,2.70
2023-05-05T05:51:02.236Z,2.50
2023-05-05T05:56:06.141Z,2.90
2023-05-05T06:01:09.113Z,3.10
2023-05-05T06:06:12.181Z,3.00
2023-05-05T06:11:15.286Z,3.30
2023-05-05T06:16:18.401Z,2.80
2023-05-05T06:21:21.810Z,2.50
2023-05-05T06:26:26.350Z,2.80
2023-05-05T06:31:29.588Z,2.50
2023-05-05T06:36:32.849Z,2.30
2023-05-05T06:41:36.293Z,2.40
2023-05-05T06:46:39.529Z,2.20
2023-05-05T06:51:43.052Z,3.00
2023-05-05T06:56:46.958Z,1.90
2023-05-05T07:01:51.187Z,2.50
2023-05-05T07:06:55.547Z,2.20
2023-05-05T07:11:58.773Z,2.30
2023-05-05T07:17:01.942Z,2.30
2023-05-05T07:22:05.287Z,2.10
2023-05-05T07:27:08.721Z,2.30
2023-05-05T07:32:12.053Z,2.30
2023-05-05T07:37:15.311Z,2.00
2023-05-05T07:42:18.526Z,2.20
2023-05-05T07:47:21.817Z,2.10
2023-05-05T07:52:43.703Z,2.70
2023-05-05T07:57:49.852Z,2.10
2023-05-05T08:02:53.119Z,2.30
2023-05-05T08:07:56.285Z,2.30
2023-05-05T08:12:59.436Z,2.40
2023-05-05T08:18:02.662Z,2.50
2023-05-05T08:23:06.432Z,3.40
2023-05-05T08:28:09.639Z,2.40
2023-05-05T08:33:13.012Z,2.70
2023-05-05T08:38:16.473Z,2.90
2023-05-05T08:43:22.925Z,2.70
2023-05-05T08:48:28.565Z,2.30
2023-05-05T08:53:34.205Z,2.90
2023-05-05T08:58:37.807Z,2.40
2023-05-05T09:03:41.141Z,2.40
2023-05-05T09:08:44.749Z,2.30
2023-05-05T09:19:09.101Z,2.40
2023-05-05T09:24:13.471Z,2.40
2023-05-05T09:29:23.429Z,2.50
2023-05-05T09:34:26.967Z,1.80
2023-05-05T09:39:30.038Z,2.10
2023-05-05T09:44:35.289Z,2.40
2023-05-05T09:49:39.020Z,2.30
2023-05-05T09:54:43.461Z,2.80
2023-05-05T10:00:16.262Z,2.30
2023-05-05T10:05:19.614Z,2.70
2023-05-05T10:10:22.871Z,2.60
2023-05-05T10:15:26.090Z,2.40
2023-05-05T10:20:33.375Z,2.20
2023-05-05T10:25:47.456Z,2.10
2023-05-05T10:30:54.579Z,2.50
2023-05-05T10:36:05.563Z,2.40
2023-05-05T10:41:10.496Z,2.20
2023-05-05T10:46:13.779Z,2.70
2023-05-05T10:51:53.086Z,2.50
2023-05-05T10:56:58.252Z,2.30
2023-05-05T11:02:01.456Z,2.30
2023-05-05T11:07:14.722Z,2.10
2023-05-05T11:12:18.224Z,2.50
2023-05-05T11:17:47.280Z,2.50
2023-05-05T11:23:02.749Z,2.20
2023-05-05T11:28:08.853Z,2.50
2023-05-05T11:33:30.710Z,2.50
2023-05-05T11:38:36.637Z,2.00
2023-05-05T11:43:41.891Z,2.30
2023-05-05T11:48:49.257Z,2.30
2023-05-05T11:53:52.821Z,2.30
2023-05-05T11:59:09.866Z,2.10
2023-05-05T12:04:16.485Z,2.20
2023-05-05T12:09:21.291Z,2.10
2023-05-05T12:14:25.892Z,1.90
2023-05-05T12:19:33.289Z,2.30
2023-05-05T12:24:36.464Z,1.80
2023-05-05T12:29:39.568Z,1.90
2023-05-05T12:34:43.402Z,2.10
2023-05-05T12:39:46.509Z,2.00
2023-05-05T12:44:49.925Z,1.80
2023-05-05T12:49:53.652Z,1.80
2023-05-05T12:55:00.248Z,2.40
2023-05-05T13:00:15.646Z,1.80
2023-05-05T13:05:33.182Z,2.70
2023-05-05T13:10:36.616Z,4.40
2023-05-05T13:15:39.709Z,2.80
2023-05-05T13:20:42.812Z,2.20
2023-05-05T13:25:46.008Z,2.10
2023-05-05T13:30:49.145Z,2.80
2023-05-05T13:35:52.347Z,1.90
2023-05-05T13:40:55.560Z,1.60
2023-05-05T13:46:08.639Z,2.00
2023-05-05T13:51:16.532Z,1.90
2023-05-05T13:56:19.949Z,2.10
2023-05-05T14:01:23.112Z,1.90
2023-05-05T14:06:26.558Z,2.00
2023-05-05T14:11:31.725Z,2.00
2023-05-05T14:16:35.023Z,1.90
2023-05-05T14:21:38.344Z,1.80
2023-05-05T14:26:41.363Z,2.10
2023-05-05T14:31:44.366Z,1.80
2023-05-05T14:36:47.822Z,1.60
2023-05-05T14:41:51.195Z,2.10
2023-05-05T14:46:54.296Z,1.70
2023-05-05T14:51:57.421Z,1.70
2023-05-05T14:57:00.644Z,1.60
2023-05-05T15:02:03.836Z,1.80
2023-05-05T15:07:06.954Z,1.80
2023-05-05T15:12:09.942Z,2.20
2023-05-05T15:17:13.160Z,1.80
2023-05-05T15:22:16.158Z,1.90
2023-05-05T15:27:19.172Z,2.10
2023-05-05T15:32:22.340Z,1.90
2023-05-05T15:37:25.387Z,1.60
2023-05-05T15:42:28.595Z,1.70
2023-05-05T15:47:31.683Z,1.70
2023-05-05T15:52:35.117Z,1.90
2023-05-05T15:57:39.978Z,1.60
2023-05-05T16:02:43.229Z,1.70
2023-05-05T16:07:46.723Z,1.60
2023-05-05T16:12:50.253Z,1.80
2023-05-05T16:17:53.375Z,1.60
2023-05-05T16:22:57.474Z,1.70
2023-05-05T16:28:01.804Z,1.90
2023-05-05T16:33:05.040Z,2.10
2023-05-05T16:38:08.010Z,1.60
2023-05-05T16:43:11.138Z,1.80
2023-05-05T16:48:14.858Z,1.90
2023-05-05T16:53:18.059Z,1.50
2023-05-05T16:58:22.583Z,2.00
2023-05-05T17:03:25.717Z,1.80
2023-05-05T17:08:28.682Z,2.10
2023-05-05T17:13:31.826Z,1.30
2023-05-05T17:18:34.945Z,1.60
2023-05-05T17:23:37.959Z,1.50
2023-05-05T17:28:41.148Z,1.60
2023-05-05T17:33:44.164Z,1.90
2023-05-05T17:38:47.274Z,1.60
2023-05-05T17:43:50.372Z,1.90
2023-05-05T17:48:53.848Z,1.90
2023-05-05T17:53:57.103Z,1.80
2023-05-05T17:59:00.894Z,1.80
2023-05-05T18:04:04.446Z,1.50
2023-05-05T18:09:09.207Z,2.20
2023-05-05T18:14:14.146Z,1.70
2023-05-05T18:19:17.255Z,2.10
2023-05-05T18:24:20.771Z,2.30
2023-05-05T18:29:23.992Z,1.30
2023-05-05T18:34:27.097Z,1.70
2023-05-05T18:39:30.521Z,1.60
2023-05-05T18:44:34.948Z,2.30
2023-05-05T18:49:38.169Z,2.00
2023-05-05T18:54:41.285Z,2.20
2023-05-05T18:59:44.283Z,2.40
2023-05-05T19:04:47.208Z,2.10
2023-05-05T19:09:50.900Z,2.10
2023-05-05T19:14:53.808Z,3.30
2023-05-05T19:19:56.918Z,2.70
2023-05-05T19:24:59.921Z,2.30
2023-05-05T19:30:05.078Z,2.40
2023-05-05T19:35:10.700Z,2.90
2023-05-05T19:40:14.156Z,2.40
2023-05-05T19:45:17.792Z,2.80
2023-05-05T19:50:21.507Z,1.90
2023-05-05T19:55:24.721Z,3.00
2023-05-05T20:00:27.820Z,2.50
2023-05-05T20:05:31.030Z,2.20
2023-05-05T20:10:34.754Z,2.80
2023-05-05T20:15:37.740Z,2.70
2023-05-05T20:20:40.872Z,2.30
2023-05-05T20:25:43.894Z,2.90
2023-05-05T20:30:46.885Z,2.90
2023-05-05T20:35:49.790Z,3.30
2023-05-05T20:40:53.008Z,3.10
2023-05-05T20:45:56.316Z,3.20
2023-05-05T20:51:03.026Z,4.00
2023-05-05T20:56:08.002Z,3.60
2023-05-05T21:01:11.950Z,3.00
2023-05-05T21:06:14.996Z,3.40
2023-05-05T21:11:18.009Z,3.90
2023-05-05T21:16:21.097Z,3.10
2023-05-05T21:21:24.727Z,4.50
2023-05-05T21:26:27.944Z,3.40
2023-05-05T21:31:31.177Z,3.20
2023-05-05T21:36:34.566Z,3.40
2023-05-05T21:41:37.689Z,4.10
2023-05-05T21:46:40.860Z,4.00
2023-05-05T21:51:45.026Z,4.00
2023-05-05T21:56:48.134Z,3.90
2023-05-05T22:01:51.353Z,4.00
2023-05-05T22:06:54.452Z,4.20
2023-05-05T22:11:57.757Z,4.70
2023-05-05T22:17:00.873Z,4.30
2023-05-05T22:22:04.188Z,3.70
2023-05-05T22:27:07.327Z,4.30
2023-05-05T22:32:10.508Z,5.10
2023-05-05T22:37:14.234Z,4.50
2023-05-05T22:42:17.343Z,4.80
2023-05-05T22:47:20.503Z,4.60
2023-05-05T22:52:25.815Z,4.30
2023-05-05T22:57:28.824Z,4.70
2023-05-05T23:02:32.123Z,4.00
2023-05-05T23:07:35.340Z,4.50
2023-05-05T23:12:38.561Z,4.90
2023-05-05T23:17:41.593Z,4.90
2023-05-05T23:22:44.664Z,4.60
2023-05-05T23:27:48.191Z,4.90
2023-05-05T23:32:51.227Z,4.60
2023-05-05T23:37:54.299Z,4.50
2023-05-05T23:42:57.310Z,4.50
2023-05-05T23:48:00.560Z,4.60
2023-05-05T23:53:03.622Z,4.00
2023-05-05T23:58:06.735Z,4.40
